Dati Storici

Data ora Umidita' aria (%) Temperatura aria (°C) Rad globale (W/m²) Gonioanemometro (°) Tacoanemometro (m/s) Pioggia (mm)
29-06-2020 15:30 65.2 % 25.969 40.186 2.248 0 0
29-06-2020 15:20 54 % 28.012 12.859 4.067 0 0
29-06-2020 15:10 43.7 % 31.903 135.581 3.647 0 0
29-06-2020 15:00 44.9 % 31.827 239.291 2.239 0 0
29-06-2020 14:50 44.9 % 31.558 224.747 1.99 0 0
29-06-2020 14:40 44.7 % 31.122 193.523 2.684 0 0
29-06-2020 14:30 44.2 % 31.19 99.646 3.896 0 0
29-06-2020 14:20 44.4 % 31.363 239.397 3.345 0 0
29-06-2020 14:10 43.2 % 31.044 201.049 4.327 0 0
29-06-2020 14:00 44.9 % 32.344 221.626 1.425 0 0
29-06-2020 13:50 44.4 % 31.333 189.002 2.44 0 0
29-06-2020 13:40 43.3 % 31.465 201.523 2.105 0 0
29-06-2020 13:30 45 % 31.286 12.564 4.852 0 0
29-06-2020 13:20 44.5 % 31.054 149.388 3.874 0 0
29-06-2020 13:10 46.9 % 30.862 206.041 3.727 0 0
29-06-2020 13:00 47.5 % 30.612 153.429 4.727 0 0
29-06-2020 12:50 52.2 % 30.428 226.439 1.767 0 0
29-06-2020 12:40 52.2 % 31.344 149.561 3.951 0 0
29-06-2020 12:30 51.9 % 29.895 173.184 4.41 0 0
29-06-2020 12:20 53.3 % 29.935 104.936 2.493 0 0

I dati sono presentati in modo automatico a scopo informativo. In seguito a verifica i dati possono subire modifiche o essere invalidati e non riportati negli archivi definitivi.